sensor_id;sensor_type;location;lat;lon;timestamp;P1;durP1;ratioP1;P2;durP2;ratioP2
23826;SDS011;12094;50.822;4.376;2022-09-21T00:01:33;23.85;;;10.07;;
23826;SDS011;12094;50.822;4.376;2022-09-21T00:04:01;16.75;;;9.45;;
23826;SDS011;12094;50.822;4.376;2022-09-21T00:06:31;20.15;;;9.73;;
23826;SDS011;12094;50.822;4.376;2022-09-21T00:08:59;20.38;;;9.80;;
23826;SDS011;12094;50.822;4.376;2022-09-21T00:11:30;19.45;;;9.27;;
23826;SDS011;12094;50.822;4.376;2022-09-21T00:14:05;25.33;;;10.52;;
23826;SDS011;12094;50.822;4.376;2022-09-21T00:16:37;21.92;;;9.68;;
23826;SDS011;12094;50.822;4.376;2022-09-21T00:19:06;17.88;;;9.25;;
23826;SDS011;12094;50.822;4.376;2022-09-21T00:21:33;19.98;;;9.23;;
23826;SDS011;12094;50.822;4.376;2022-09-21T00:26:32;24.20;;;10.65;;
23826;SDS011;12094;50.822;4.376;2022-09-21T00:29:00;24.10;;;11.45;;
23826;SDS011;12094;50.822;4.376;2022-09-21T00:31:28;28.45;;;11.52;;
23826;SDS011;12094;50.822;4.376;2022-09-21T00:33:59;29.85;;;11.95;;
23826;SDS011;12094;50.822;4.376;2022-09-21T00:36:28;28.95;;;11.13;;
23826;SDS011;12094;50.822;4.376;2022-09-21T00:38:57;22.67;;;10.65;;
23826;SDS011;12094;50.822;4.376;2022-09-21T00:41:27;20.40;;;10.50;;
23826;SDS011;12094;50.822;4.376;2022-09-21T00:46:50;22.73;;;10.85;;
23826;SDS011;12094;50.822;4.376;2022-09-21T00:49:20;23.75;;;10.90;;
23826;SDS011;12094;50.822;4.376;2022-09-21T00:51:49;20.02;;;10.82;;
23826;SDS011;12094;50.822;4.376;2022-09-21T00:54:24;24.63;;;11.73;;
23826;SDS011;12094;50.822;4.376;2022-09-21T00:56:54;30.33;;;11.98;;
23826;SDS011;12094;50.822;4.376;2022-09-21T00:59:23;23.92;;;10.35;;
23826;SDS011;12094;50.822;4.376;2022-09-21T01:01:55;24.65;;;10.95;;
23826;SDS011;12094;50.822;4.376;2022-09-21T01:04:24;25.92;;;9.88;;
23826;SDS011;12094;50.822;4.376;2022-09-21T01:06:54;20.90;;;9.75;;
23826;SDS011;12094;50.822;4.376;2022-09-21T01:09:23;25.08;;;10.20;;
23826;SDS011;12094;50.822;4.376;2022-09-21T01:12:02;20.15;;;10.15;;
23826;SDS011;12094;50.822;4.376;2022-09-21T01:23:00;22.95;;;10.10;;
23826;SDS011;12094;50.822;4.376;2022-09-21T01:31:40;19.13;;;10.60;;
23826;SDS011;12094;50.822;4.376;2022-09-21T01:34:23;18.48;;;11.27;;
23826;SDS011;12094;50.822;4.376;2022-09-21T01:36:52;18.23;;;11.05;;
23826;SDS011;12094;50.822;4.376;2022-09-21T01:39:23;26.23;;;10.93;;
23826;SDS011;12094;50.822;4.376;2022-09-21T01:41:51;18.77;;;10.38;;
23826;SDS011;12094;50.822;4.376;2022-09-21T01:44:22;22.83;;;10.48;;
23826;SDS011;12094;50.822;4.376;2022-09-21T01:46:54;18.98;;;11.10;;
23826;SDS011;12094;50.822;4.376;2022-09-21T01:49:29;22.02;;;11.20;;
23826;SDS011;12094;50.822;4.376;2022-09-21T01:52:22;26.90;;;11.18;;
23826;SDS011;12094;50.822;4.376;2022-09-21T01:54:57;20.55;;;11.13;;
23826;SDS011;12094;50.822;4.376;2022-09-21T02:00:07;20.08;;;11.93;;
23826;SDS011;12094;50.822;4.376;2022-09-21T02:03:01;24.40;;;13.07;;
23826;SDS011;12094;50.822;4.376;2022-09-21T02:05:41;25.45;;;12.38;;
23826;SDS011;12094;50.822;4.376;2022-09-21T02:08:08;21.40;;;10.77;;
23826;SDS011;12094;50.822;4.376;2022-09-21T02:10:47;22.38;;;11.48;;
23826;SDS011;12094;50.822;4.376;2022-09-21T02:13:16;19.52;;;11.68;;
23826;SDS011;12094;50.822;4.376;2022-09-21T02:20:52;23.13;;;11.57;;
23826;SDS011;12094;50.822;4.376;2022-09-21T02:23:25;29.35;;;11.85;;
23826;SDS011;12094;50.822;4.376;2022-09-21T02:26:03;20.98;;;10.93;;
23826;SDS011;12094;50.822;4.376;2022-09-21T02:31:47;20.98;;;11.30;;
23826;SDS011;12094;50.822;4.376;2022-09-21T02:37:49;26.40;;;10.60;;
23826;SDS011;12094;50.822;4.376;2022-09-21T02:40:32;14.95;;;10.07;;
23826;SDS011;12094;50.822;4.376;2022-09-21T02:43:09;21.75;;;10.48;;
23826;SDS011;12094;50.822;4.376;2022-09-21T02:45:45;18.13;;;9.40;;
23826;SDS011;12094;50.822;4.376;2022-09-21T02:48:24;19.67;;;9.23;;
23826;SDS011;12094;50.822;4.376;2022-09-21T02:50:58;16.50;;;9.50;;
23826;SDS011;12094;50.822;4.376;2022-09-21T02:53:34;19.85;;;9.73;;
23826;SDS011;12094;50.822;4.376;2022-09-21T02:56:03;15.68;;;9.07;;
23826;SDS011;12094;50.822;4.376;2022-09-21T02:58:41;15.63;;;9.00;;
23826;SDS011;12094;50.822;4.376;2022-09-21T03:01:11;19.00;;;9.35;;
23826;SDS011;12094;50.822;4.376;2022-09-21T03:03:41;18.65;;;9.40;;
23826;SDS011;12094;50.822;4.376;2022-09-21T03:06:08;19.42;;;9.65;;
23826;SDS011;12094;50.822;4.376;2022-09-21T03:08:35;19.73;;;8.75;;
23826;SDS011;12094;50.822;4.376;2022-09-21T03:11:02;16.80;;;9.40;;
23826;SDS011;12094;50.822;4.376;2022-09-21T03:13:29;17.42;;;8.57;;
23826;SDS011;12094;50.822;4.376;2022-09-21T03:16:00;17.25;;;8.50;;
23826;SDS011;12094;50.822;4.376;2022-09-21T03:18:29;17.73;;;8.40;;
23826;SDS011;12094;50.822;4.376;2022-09-21T03:20:56;17.00;;;8.40;;
23826;SDS011;12094;50.822;4.376;2022-09-21T03:23:24;14.02;;;7.97;;
23826;SDS011;12094;50.822;4.376;2022-09-21T03:25:51;15.85;;;8.38;;
23826;SDS011;12094;50.822;4.376;2022-09-21T03:28:18;18.85;;;8.77;;
23826;SDS011;12094;50.822;4.376;2022-09-21T03:30:45;16.20;;;8.00;;
23826;SDS011;12094;50.822;4.376;2022-09-21T03:33:17;11.63;;;7.65;;
23826;SDS011;12094;50.822;4.376;2022-09-21T03:35:49;16.77;;;8.32;;
23826;SDS011;12094;50.822;4.376;2022-09-21T03:38:17;21.15;;;8.32;;
23826;SDS011;12094;50.822;4.376;2022-09-21T03:40:45;17.27;;;9.05;;
23826;SDS011;12094;50.822;4.376;2022-09-21T03:43:13;19.55;;;9.20;;
23826;SDS011;12094;50.822;4.376;2022-09-21T03:45:41;15.55;;;8.20;;
23826;SDS011;12094;50.822;4.376;2022-09-21T03:48:09;15.85;;;8.93;;
23826;SDS011;12094;50.822;4.376;2022-09-21T03:50:37;16.10;;;8.85;;
23826;SDS011;12094;50.822;4.376;2022-09-21T03:53:05;14.55;;;7.90;;
23826;SDS011;12094;50.822;4.376;2022-09-21T03:55:34;15.93;;;8.63;;
23826;SDS011;12094;50.822;4.376;2022-09-21T03:58:03;17.58;;;8.45;;
23826;SDS011;12094;50.822;4.376;2022-09-21T04:00:30;18.13;;;8.27;;
23826;SDS011;12094;50.822;4.376;2022-09-21T04:02:58;15.05;;;8.50;;
23826;SDS011;12094;50.822;4.376;2022-09-21T04:05:26;14.98;;;8.77;;
23826;SDS011;12094;50.822;4.376;2022-09-21T04:07:54;14.70;;;8.27;;
23826;SDS011;12094;50.822;4.376;2022-09-21T04:10:23;16.35;;;8.23;;
23826;SDS011;12094;50.822;4.376;2022-09-21T04:12:58;17.95;;;8.80;;
23826;SDS011;12094;50.822;4.376;2022-09-21T04:15:30;12.88;;;8.40;;
23826;SDS011;12094;50.822;4.376;2022-09-21T04:17:59;16.05;;;8.38;;
23826;SDS011;12094;50.822;4.376;2022-09-21T04:20:26;15.35;;;8.02;;
23826;SDS011;12094;50.822;4.376;2022-09-21T04:22:52;15.38;;;8.18;;
23826;SDS011;12094;50.822;4.376;2022-09-21T04:25:21;13.38;;;7.75;;
23826;SDS011;12094;50.822;4.376;2022-09-21T04:27:48;14.95;;;8.15;;
23826;SDS011;12094;50.822;4.376;2022-09-21T04:30:16;15.00;;;8.07;;
23826;SDS011;12094;50.822;4.376;2022-09-21T04:32:43;14.20;;;7.82;;
23826;SDS011;12094;50.822;4.376;2022-09-21T04:35:10;15.88;;;8.00;;
23826;SDS011;12094;50.822;4.376;2022-09-21T04:37:37;19.42;;;7.68;;
23826;SDS011;12094;50.822;4.376;2022-09-21T04:40:04;14.40;;;7.88;;
23826;SDS011;12094;50.822;4.376;2022-09-21T04:42:32;18.23;;;8.88;;
23826;SDS011;12094;50.822;4.376;2022-09-21T04:44:59;17.80;;;8.82;;
23826;SDS011;12094;50.822;4.376;2022-09-21T04:47:28;20.02;;;8.35;;
23826;SDS011;12094;50.822;4.376;2022-09-21T04:49:55;18.30;;;8.57;;
23826;SDS011;12094;50.822;4.376;2022-09-21T04:52:22;19.90;;;8.88;;
23826;SDS011;12094;50.822;4.376;2022-09-21T04:54:49;15.85;;;8.75;;
23826;SDS011;12094;50.822;4.376;2022-09-21T04:57:16;14.75;;;8.40;;
23826;SDS011;12094;50.822;4.376;2022-09-21T04:59:43;13.63;;;8.52;;
23826;SDS011;12094;50.822;4.376;2022-09-21T05:02:10;14.00;;;8.35;;
23826;SDS011;12094;50.822;4.376;2022-09-21T05:04:40;16.98;;;8.73;;
23826;SDS011;12094;50.822;4.376;2022-09-21T05:07:07;16.33;;;8.25;;
23826;SDS011;12094;50.822;4.376;2022-09-21T05:09:36;14.02;;;8.70;;
23826;SDS011;12094;50.822;4.376;2022-09-21T05:12:21;21.38;;;8.32;;
23826;SDS011;12094;50.822;4.376;2022-09-21T05:14:52;13.88;;;8.02;;
23826;SDS011;12094;50.822;4.376;2022-09-21T05:17:20;15.50;;;8.70;;
23826;SDS011;12094;50.822;4.376;2022-09-21T05:19:48;17.70;;;8.93;;
23826;SDS011;12094;50.822;4.376;2022-09-21T05:22:16;20.45;;;9.10;;
23826;SDS011;12094;50.822;4.376;2022-09-21T05:24:44;15.32;;;8.85;;
23826;SDS011;12094;50.822;4.376;2022-09-21T05:27:11;15.85;;;8.30;;
23826;SDS011;12094;50.822;4.376;2022-09-21T05:29:39;18.52;;;9.02;;
23826;SDS011;12094;50.822;4.376;2022-09-21T05:32:21;23.40;;;9.57;;
23826;SDS011;12094;50.822;4.376;2022-09-21T05:39:05;23.92;;;9.68;;
23826;SDS011;12094;50.822;4.376;2022-09-21T05:41:33;21.50;;;9.98;;
23826;SDS011;12094;50.822;4.376;2022-09-21T05:44:01;19.88;;;10.65;;
23826;SDS011;12094;50.822;4.376;2022-09-21T05:46:53;18.38;;;10.98;;
23826;SDS011;12094;50.822;4.376;2022-09-21T05:49:48;16.20;;;10.87;;
23826;SDS011;12094;50.822;4.376;2022-09-21T05:52:30;20.13;;;11.27;;
23826;SDS011;12094;50.822;4.376;2022-09-21T05:58:21;19.83;;;9.98;;
23826;SDS011;12094;50.822;4.376;2022-09-21T06:01:18;21.58;;;10.98;;
23826;SDS011;12094;50.822;4.376;2022-09-21T06:03:57;21.80;;;10.65;;
23826;SDS011;12094;50.822;4.376;2022-09-21T06:06:28;22.85;;;11.13;;
23826;SDS011;12094;50.822;4.376;2022-09-21T06:11:27;20.88;;;11.32;;
23826;SDS011;12094;50.822;4.376;2022-09-21T06:13:54;22.92;;;11.98;;
23826;SDS011;12094;50.822;4.376;2022-09-21T06:16:22;20.48;;;10.68;;
23826;SDS011;12094;50.822;4.376;2022-09-21T06:18:51;23.35;;;11.25;;
23826;SDS011;12094;50.822;4.376;2022-09-21T06:21:19;20.65;;;11.25;;
23826;SDS011;12094;50.822;4.376;2022-09-21T06:23:46;20.92;;;11.77;;
23826;SDS011;12094;50.822;4.376;2022-09-21T06:26:13;22.10;;;11.25;;
23826;SDS011;12094;50.822;4.376;2022-09-21T06:28:40;27.25;;;11.68;;
23826;SDS011;12094;50.822;4.376;2022-09-21T06:31:06;21.45;;;12.00;;
23826;SDS011;12094;50.822;4.376;2022-09-21T06:33:34;21.63;;;10.90;;
23826;SDS011;12094;50.822;4.376;2022-09-21T06:36:04;21.63;;;11.68;;
23826;SDS011;12094;50.822;4.376;2022-09-21T06:38:31;24.60;;;12.27;;
23826;SDS011;12094;50.822;4.376;2022-09-21T06:41:02;24.67;;;13.32;;
23826;SDS011;12094;50.822;4.376;2022-09-21T06:43:30;30.05;;;13.27;;
23826;SDS011;12094;50.822;4.376;2022-09-21T06:45:58;27.42;;;14.18;;
23826;SDS011;12094;50.822;4.376;2022-09-21T06:48:27;28.15;;;14.80;;
23826;SDS011;12094;50.822;4.376;2022-09-21T06:50:59;52.63;;;15.50;;
23826;SDS011;12094;50.822;4.376;2022-09-21T06:53:27;44.22;;;14.95;;
23826;SDS011;12094;50.822;4.376;2022-09-21T06:55:59;45.75;;;15.57;;
23826;SDS011;12094;50.822;4.376;2022-09-21T06:58:31;40.50;;;16.58;;
23826;SDS011;12094;50.822;4.376;2022-09-21T07:01:06;50.63;;;15.85;;
23826;SDS011;12094;50.822;4.376;2022-09-21T07:03:36;43.15;;;16.55;;
23826;SDS011;12094;50.822;4.376;2022-09-21T07:06:04;52.08;;;17.35;;
23826;SDS011;12094;50.822;4.376;2022-09-21T07:08:32;38.72;;;17.35;;
23826;SDS011;12094;50.822;4.376;2022-09-21T07:11:19;34.78;;;16.80;;
23826;SDS011;12094;50.822;4.376;2022-09-21T07:13:47;35.35;;;16.52;;
23826;SDS011;12094;50.822;4.376;2022-09-21T07:16:14;32.63;;;17.98;;
23826;SDS011;12094;50.822;4.376;2022-09-21T07:18:43;32.08;;;16.75;;
23826;SDS011;12094;50.822;4.376;2022-09-21T07:21:11;35.90;;;16.83;;
23826;SDS011;12094;50.822;4.376;2022-09-21T07:26:37;39.10;;;16.58;;
23826;SDS011;12094;50.822;4.376;2022-09-21T07:29:04;33.17;;;17.23;;
23826;SDS011;12094;50.822;4.376;2022-09-21T07:31:33;46.53;;;17.40;;
23826;SDS011;12094;50.822;4.376;2022-09-21T07:34:00;36.53;;;16.33;;
23826;SDS011;12094;50.822;4.376;2022-09-21T07:36:29;44.05;;;16.05;;
23826;SDS011;12094;50.822;4.376;2022-09-21T07:38:57;44.55;;;16.25;;
23826;SDS011;12094;50.822;4.376;2022-09-21T07:41:24;33.33;;;16.20;;
23826;SDS011;12094;50.822;4.376;2022-09-21T07:43:51;33.65;;;17.00;;
23826;SDS011;12094;50.822;4.376;2022-09-21T07:46:21;27.48;;;16.35;;
23826;SDS011;12094;50.822;4.376;2022-09-21T07:48:48;34.63;;;15.50;;
23826;SDS011;12094;50.822;4.376;2022-09-21T07:51:19;28.20;;;14.95;;
23826;SDS011;12094;50.822;4.376;2022-09-21T07:53:46;28.50;;;15.15;;
23826;SDS011;12094;50.822;4.376;2022-09-21T07:56:15;26.65;;;14.60;;
23826;SDS011;12094;50.822;4.376;2022-09-21T07:58:43;29.88;;;15.23;;
23826;SDS011;12094;50.822;4.376;2022-09-21T08:01:28;22.92;;;13.05;;
23826;SDS011;12094;50.822;4.376;2022-09-21T08:03:56;25.70;;;13.93;;
23826;SDS011;12094;50.822;4.376;2022-09-21T08:06:24;32.88;;;14.60;;
23826;SDS011;12094;50.822;4.376;2022-09-21T08:08:53;28.88;;;13.80;;
23826;SDS011;12094;50.822;4.376;2022-09-21T08:11:23;23.83;;;13.02;;
23826;SDS011;12094;50.822;4.376;2022-09-21T08:13:51;25.08;;;12.48;;
23826;SDS011;12094;50.822;4.376;2022-09-21T08:16:21;24.98;;;10.52;;
23826;SDS011;12094;50.822;4.376;2022-09-21T08:18:48;19.38;;;10.75;;
23826;SDS011;12094;50.822;4.376;2022-09-21T08:21:16;19.30;;;10.40;;
23826;SDS011;12094;50.822;4.376;2022-09-21T08:23:44;21.73;;;10.45;;
23826;SDS011;12094;50.822;4.376;2022-09-21T08:26:11;20.58;;;9.35;;
23826;SDS011;12094;50.822;4.376;2022-09-21T08:28:45;17.25;;;9.50;;
23826;SDS011;12094;50.822;4.376;2022-09-21T08:31:15;21.13;;;10.50;;
23826;SDS011;12094;50.822;4.376;2022-09-21T08:33:46;23.10;;;10.10;;
23826;SDS011;12094;50.822;4.376;2022-09-21T08:36:14;13.93;;;7.80;;
23826;SDS011;12094;50.822;4.376;2022-09-21T08:38:41;14.10;;;6.55;;
23826;SDS011;12094;50.822;4.376;2022-09-21T08:41:34;15.80;;;4.22;;
23826;SDS011;12094;50.822;4.376;2022-09-21T08:44:20;13.23;;;4.72;;
23826;SDS011;12094;50.822;4.376;2022-09-21T08:47:00;20.67;;;4.63;;
23826;SDS011;12094;50.822;4.376;2022-09-21T08:49:32;13.80;;;4.30;;
23826;SDS011;12094;50.822;4.376;2022-09-21T08:52:04;13.25;;;3.50;;
23826;SDS011;12094;50.822;4.376;2022-09-21T08:57:13;11.23;;;3.00;;
23826;SDS011;12094;50.822;4.376;2022-09-21T08:59:43;8.25;;;2.28;;
23826;SDS011;12094;50.822;4.376;2022-09-21T09:10:41;15.50;;;3.72;;
23826;SDS011;12094;50.822;4.376;2022-09-21T09:16:00;13.95;;;3.50;;
23826;SDS011;12094;50.822;4.376;2022-09-21T09:21:20;13.18;;;2.47;;
23826;SDS011;12094;50.822;4.376;2022-09-21T09:30:02;11.13;;;3.55;;
23826;SDS011;12094;50.822;4.376;2022-09-21T09:32:37;11.48;;;4.03;;
23826;SDS011;12094;50.822;4.376;2022-09-21T09:35:21;12.75;;;3.80;;
23826;SDS011;12094;50.822;4.376;2022-09-21T09:38:04;14.13;;;3.92;;
23826;SDS011;12094;50.822;4.376;2022-09-21T09:40:49;11.98;;;4.25;;
23826;SDS011;12094;50.822;4.376;2022-09-21T09:46:32;8.25;;;3.15;;
23826;SDS011;12094;50.822;4.376;2022-09-21T09:49:27;13.68;;;3.33;;
23826;SDS011;12094;50.822;4.376;2022-09-21T09:52:18;6.68;;;2.80;;
23826;SDS011;12094;50.822;4.376;2022-09-21T09:54:45;11.55;;;2.30;;
23826;SDS011;12094;50.822;4.376;2022-09-21T09:57:12;6.35;;;2.53;;
23826;SDS011;12094;50.822;4.376;2022-09-21T09:59:49;9.15;;;2.95;;
23826;SDS011;12094;50.822;4.376;2022-09-21T10:02:21;9.20;;;2.88;;
23826;SDS011;12094;50.822;4.376;2022-09-21T10:04:53;9.13;;;1.70;;
23826;SDS011;12094;50.822;4.376;2022-09-21T10:07:35;11.68;;;4.50;;
23826;SDS011;12094;50.822;4.376;2022-09-21T10:10:46;9.80;;;3.47;;
23826;SDS011;12094;50.822;4.376;2022-09-21T10:15:58;8.52;;;2.10;;
23826;SDS011;12094;50.822;4.376;2022-09-21T10:23:33;9.45;;;1.85;;
23826;SDS011;12094;50.822;4.376;2022-09-21T10:26:07;16.15;;;1.60;;
23826;SDS011;12094;50.822;4.376;2022-09-21T10:28:36;7.40;;;1.95;;
23826;SDS011;12094;50.822;4.376;2022-09-21T10:31:22;9.13;;;1.90;;
23826;SDS011;12094;50.822;4.376;2022-09-21T10:34:03;8.32;;;1.83;;
23826;SDS011;12094;50.822;4.376;2022-09-21T10:36:34;9.48;;;1.85;;
23826;SDS011;12094;50.822;4.376;2022-09-21T10:39:23;6.93;;;1.80;;
23826;SDS011;12094;50.822;4.376;2022-09-21T10:42:03;9.25;;;2.10;;
23826;SDS011;12094;50.822;4.376;2022-09-21T10:47:17;9.18;;;1.63;;
23826;SDS011;12094;50.822;4.376;2022-09-21T10:49:53;5.80;;;1.20;;
23826;SDS011;12094;50.822;4.376;2022-09-21T10:52:23;5.82;;;1.30;;
23826;SDS011;12094;50.822;4.376;2022-09-21T10:54:58;8.82;;;1.48;;
23826;SDS011;12094;50.822;4.376;2022-09-21T10:57:26;6.72;;;1.42;;
23826;SDS011;12094;50.822;4.376;2022-09-21T10:59:55;8.70;;;1.60;;
23826;SDS011;12094;50.822;4.376;2022-09-21T11:02:24;9.40;;;1.70;;
23826;SDS011;12094;50.822;4.376;2022-09-21T11:07:46;5.30;;;1.40;;
23826;SDS011;12094;50.822;4.376;2022-09-21T11:16:25;8.55;;;1.67;;
23826;SDS011;12094;50.822;4.376;2022-09-21T11:22:07;9.57;;;1.80;;
23826;SDS011;12094;50.822;4.376;2022-09-21T11:24:47;11.75;;;1.70;;
23826;SDS011;12094;50.822;4.376;2022-09-21T11:27:33;5.57;;;1.13;;
23826;SDS011;12094;50.822;4.376;2022-09-21T11:30:08;5.75;;;1.45;;
23826;SDS011;12094;50.822;4.376;2022-09-21T11:43:43;5.22;;;1.20;;
23826;SDS011;12094;50.822;4.376;2022-09-21T11:49:02;4.57;;;0.90;;
23826;SDS011;12094;50.822;4.376;2022-09-21T11:57:12;6.85;;;1.30;;
23826;SDS011;12094;50.822;4.376;2022-09-21T12:11:11;6.32;;;1.00;;
23826;SDS011;12094;50.822;4.376;2022-09-21T12:14:10;5.65;;;1.35;;
23826;SDS011;12094;50.822;4.376;2022-09-21T12:21:44;3.30;;;0.95;;
23826;SDS011;12094;50.822;4.376;2022-09-21T12:24:19;4.25;;;1.10;;
23826;SDS011;12094;50.822;4.376;2022-09-21T12:26:58;7.80;;;1.05;;
23826;SDS011;12094;50.822;4.376;2022-09-21T12:29:34;4.28;;;1.10;;
23826;SDS011;12094;50.822;4.376;2022-09-21T12:32:17;3.60;;;1.10;;
23826;SDS011;12094;50.822;4.376;2022-09-21T12:34:47;4.72;;;1.10;;
23826;SDS011;12094;50.822;4.376;2022-09-21T12:40:02;5.00;;;1.17;;
23826;SDS011;12094;50.822;4.376;2022-09-21T12:45:18;104.78;;;5.00;;
23826;SDS011;12094;50.822;4.376;2022-09-21T12:50:48;3.67;;;1.00;;
23826;SDS011;12094;50.822;4.376;2022-09-21T12:53:44;4.53;;;1.15;;
23826;SDS011;12094;50.822;4.376;2022-09-21T13:01:44;4.55;;;1.13;;
23826;SDS011;12094;50.822;4.376;2022-09-21T13:10:02;4.80;;;1.17;;
23826;SDS011;12094;50.822;4.376;2022-09-21T13:12:45;6.05;;;1.42;;
23826;SDS011;12094;50.822;4.376;2022-09-21T13:15:31;6.78;;;1.63;;
23826;SDS011;12094;50.822;4.376;2022-09-21T13:18:17;10.45;;;3.83;;
23826;SDS011;12094;50.822;4.376;2022-09-21T13:20:48;5.28;;;1.30;;
23826;SDS011;12094;50.822;4.376;2022-09-21T13:23:20;5.10;;;1.20;;
23826;SDS011;12094;50.822;4.376;2022-09-21T13:26:01;3.78;;;0.90;;
23826;SDS011;12094;50.822;4.376;2022-09-21T13:36:41;13.70;;;1.48;;
23826;SDS011;12094;50.822;4.376;2022-09-21T13:39:15;5.85;;;1.35;;
23826;SDS011;12094;50.822;4.376;2022-09-21T13:41:44;3.00;;;0.98;;
23826;SDS011;12094;50.822;4.376;2022-09-21T13:44:36;6.07;;;1.17;;
23826;SDS011;12094;50.822;4.376;2022-09-21T13:47:08;7.78;;;1.63;;
23826;SDS011;12094;50.822;4.376;2022-09-21T13:49:38;5.18;;;1.13;;
23826;SDS011;12094;50.822;4.376;2022-09-21T13:57:57;7.63;;;1.77;;
23826;SDS011;12094;50.822;4.376;2022-09-21T14:00:50;6.35;;;1.30;;
23826;SDS011;12094;50.822;4.376;2022-09-21T14:03:37;4.55;;;1.33;;
23826;SDS011;12094;50.822;4.376;2022-09-21T14:06:08;5.38;;;1.63;;
23826;SDS011;12094;50.822;4.376;2022-09-21T14:08:46;6.93;;;1.50;;
23826;SDS011;12094;50.822;4.376;2022-09-21T14:11:36;3.08;;;1.40;;
23826;SDS011;12094;50.822;4.376;2022-09-21T14:16:48;11.13;;;1.50;;
23826;SDS011;12094;50.822;4.376;2022-09-21T14:27:18;8.68;;;1.30;;
23826;SDS011;12094;50.822;4.376;2022-09-21T14:32:51;7.90;;;1.45;;
23826;SDS011;12094;50.822;4.376;2022-09-21T14:35:32;6.63;;;1.50;;
23826;SDS011;12094;50.822;4.376;2022-09-21T14:40:53;9.68;;;1.63;;
23826;SDS011;12094;50.822;4.376;2022-09-21T14:43:28;6.45;;;1.40;;
23826;SDS011;12094;50.822;4.376;2022-09-21T14:57:28;4.90;;;1.20;;
23826;SDS011;12094;50.822;4.376;2022-09-21T15:00:12;5.78;;;1.35;;
23826;SDS011;12094;50.822;4.376;2022-09-21T15:03:04;7.50;;;1.30;;
23826;SDS011;12094;50.822;4.376;2022-09-21T15:05:41;3.75;;;1.20;;
23826;SDS011;12094;50.822;4.376;2022-09-21T15:11:14;7.75;;;1.38;;
23826;SDS011;12094;50.822;4.376;2022-09-21T15:16:38;5.70;;;1.52;;
23826;SDS011;12094;50.822;4.376;2022-09-21T15:19:11;5.95;;;1.40;;
23826;SDS011;12094;50.822;4.376;2022-09-21T15:24:56;4.18;;;1.40;;
23826;SDS011;12094;50.822;4.376;2022-09-21T15:27:28;5.93;;;1.40;;
23826;SDS011;12094;50.822;4.376;2022-09-21T15:30:02;6.78;;;1.50;;
23826;SDS011;12094;50.822;4.376;2022-09-21T15:32:52;6.95;;;1.70;;
23826;SDS011;12094;50.822;4.376;2022-09-21T15:35:31;6.63;;;1.42;;
23826;SDS011;12094;50.822;4.376;2022-09-21T15:37:59;3.53;;;1.25;;
23826;SDS011;12094;50.822;4.376;2022-09-21T15:40:27;7.50;;;1.85;;
23826;SDS011;12094;50.822;4.376;2022-09-21T15:42:59;5.85;;;1.40;;
23826;SDS011;12094;50.822;4.376;2022-09-21T15:45:49;5.53;;;1.23;;
23826;SDS011;12094;50.822;4.376;2022-09-21T15:48:25;9.13;;;1.38;;
23826;SDS011;12094;50.822;4.376;2022-09-21T15:53:37;5.97;;;2.05;;
23826;SDS011;12094;50.822;4.376;2022-09-21T15:56:21;5.38;;;1.80;;
23826;SDS011;12094;50.822;4.376;2022-09-21T15:58:51;7.00;;;1.20;;
23826;SDS011;12094;50.822;4.376;2022-09-21T16:01:28;5.45;;;1.48;;
23826;SDS011;12094;50.822;4.376;2022-09-21T16:04:03;9.25;;;1.40;;
23826;SDS011;12094;50.822;4.376;2022-09-21T16:06:39;4.68;;;1.52;;
23826;SDS011;12094;50.822;4.376;2022-09-21T16:09:33;6.20;;;1.30;;
23826;SDS011;12094;50.822;4.376;2022-09-21T16:12:36;4.80;;;1.38;;
23826;SDS011;12094;50.822;4.376;2022-09-21T16:14:51;7.93;;;1.45;;
23826;SDS011;12094;50.822;4.376;2022-09-21T16:24:59;5.75;;;1.10;;
23826;SDS011;12094;50.822;4.376;2022-09-21T16:27:28;5.55;;;1.15;;
23826;SDS011;12094;50.822;4.376;2022-09-21T16:30:01;5.90;;;1.30;;
23826;SDS011;12094;50.822;4.376;2022-09-21T16:32:32;5.40;;;1.20;;
23826;SDS011;12094;50.822;4.376;2022-09-21T16:37:54;5.82;;;1.65;;
23826;SDS011;12094;50.822;4.376;2022-09-21T16:40:23;8.10;;;1.20;;
23826;SDS011;12094;50.822;4.376;2022-09-21T16:42:52;2.88;;;1.10;;
23826;SDS011;12094;50.822;4.376;2022-09-21T16:45:24;4.82;;;1.40;;
23826;SDS011;12094;50.822;4.376;2022-09-21T16:47:57;5.70;;;1.42;;
23826;SDS011;12094;50.822;4.376;2022-09-21T16:50:24;7.35;;;1.70;;
23826;SDS011;12094;50.822;4.376;2022-09-21T16:52:53;3.30;;;1.20;;
23826;SDS011;12094;50.822;4.376;2022-09-21T16:55:20;7.13;;;1.50;;
23826;SDS011;12094;50.822;4.376;2022-09-21T16:57:52;7.07;;;1.10;;
23826;SDS011;12094;50.822;4.376;2022-09-21T17:00:20;4.57;;;1.40;;
23826;SDS011;12094;50.822;4.376;2022-09-21T17:02:48;5.72;;;1.60;;
23826;SDS011;12094;50.822;4.376;2022-09-21T17:05:15;8.18;;;1.58;;
23826;SDS011;12094;50.822;4.376;2022-09-21T17:07:51;7.47;;;1.65;;
23826;SDS011;12094;50.822;4.376;2022-09-21T17:10:22;4.93;;;1.40;;
23826;SDS011;12094;50.822;4.376;2022-09-21T17:12:54;5.55;;;1.45;;
23826;SDS011;12094;50.822;4.376;2022-09-21T17:15:22;5.90;;;1.85;;
23826;SDS011;12094;50.822;4.376;2022-09-21T17:17:50;3.95;;;1.33;;
23826;SDS011;12094;50.822;4.376;2022-09-21T17:20:18;6.28;;;1.60;;
23826;SDS011;12094;50.822;4.376;2022-09-21T17:22:54;6.38;;;1.85;;
23826;SDS011;12094;50.822;4.376;2022-09-21T17:25:22;11.18;;;2.67;;
23826;SDS011;12094;50.822;4.376;2022-09-21T17:27:50;6.32;;;2.75;;
23826;SDS011;12094;50.822;4.376;2022-09-21T17:30:18;7.45;;;2.60;;
23826;SDS011;12094;50.822;4.376;2022-09-21T17:32:47;11.63;;;2.97;;
23826;SDS011;12094;50.822;4.376;2022-09-21T17:35:18;11.50;;;2.40;;
23826;SDS011;12094;50.822;4.376;2022-09-21T17:37:54;8.35;;;3.03;;
23826;SDS011;12094;50.822;4.376;2022-09-21T17:40:21;12.80;;;3.20;;
23826;SDS011;12094;50.822;4.376;2022-09-21T17:42:50;7.15;;;3.67;;
23826;SDS011;12094;50.822;4.376;2022-09-21T17:48:03;8.38;;;3.17;;
23826;SDS011;12094;50.822;4.376;2022-09-21T17:50:31;6.28;;;3.08;;
23826;SDS011;12094;50.822;4.376;2022-09-21T17:52:58;14.90;;;4.10;;
23826;SDS011;12094;50.822;4.376;2022-09-21T17:55:47;7.88;;;2.92;;
23826;SDS011;12094;50.822;4.376;2022-09-21T17:58:33;10.75;;;3.95;;
23826;SDS011;12094;50.822;4.376;2022-09-21T18:01:32;12.90;;;5.60;;
23826;SDS011;12094;50.822;4.376;2022-09-21T18:04:07;37.22;;;16.92;;
23826;SDS011;12094;50.822;4.376;2022-09-21T18:06:39;57.65;;;24.20;;
23826;SDS011;12094;50.822;4.376;2022-09-21T18:09:06;43.33;;;19.55;;
23826;SDS011;12094;50.822;4.376;2022-09-21T18:14:41;48.50;;;22.17;;
23826;SDS011;12094;50.822;4.376;2022-09-21T18:18:49;41.55;;;20.58;;
23826;SDS011;12094;50.822;4.376;2022-09-21T18:21:04;34.83;;;18.75;;
23826;SDS011;12094;50.822;4.376;2022-09-21T18:26:23;47.75;;;23.17;;
23826;SDS011;12094;50.822;4.376;2022-09-21T18:28:50;43.67;;;18.30;;
23826;SDS011;12094;50.822;4.376;2022-09-21T18:36:43;21.60;;;11.38;;
23826;SDS011;12094;50.822;4.376;2022-09-21T18:39:44;19.58;;;10.32;;
23826;SDS011;12094;50.822;4.376;2022-09-21T18:45:47;20.83;;;8.77;;
23826;SDS011;12094;50.822;4.376;2022-09-21T18:48:33;19.23;;;9.95;;
23826;SDS011;12094;50.822;4.376;2022-09-21T18:54:17;22.02;;;9.95;;
23826;SDS011;12094;50.822;4.376;2022-09-21T18:56:48;24.92;;;10.60;;
23826;SDS011;12094;50.822;4.376;2022-09-21T18:59:17;18.33;;;7.65;;
23826;SDS011;12094;50.822;4.376;2022-09-21T19:01:44;18.08;;;7.53;;
23826;SDS011;12094;50.822;4.376;2022-09-21T19:04:13;17.77;;;7.30;;
23826;SDS011;12094;50.822;4.376;2022-09-21T19:09:43;14.60;;;6.57;;